Terminal Aerodrome Forecast
Issued by NWS

Home | Current Version | Previous Version | Text Only | Print | Product List | Glossary On
Versions: 1 2 3 4 5 6 7 8 9 10 11 12 13 14 15 16 17 18 19 20
000
FTUS42 KTBW 031740 AAA
TAFRSW
TAF AMD
KRSW 031740Z 0318/0418 08005KT P6SM BKN035 BKN050 BKN100
     FM031900 32007KT P6SM VCTS SCT040CB BKN250
     FM040000 05006KT P6SM VCTS SCT025CB BKN250
     FM040300 13004KT P6SM SCT035 BKN250
     FM041700 05004KT P6SM FEW040 SCT250=

USA.gov is the U.S. government's official web portal to all federal, state and local government web resources and services.